Clarence, Illinois
Current Conditions -  °F | °C
As of 4:30 PM on Friday 19 Dec 2014 (Local Time) from KTIP Reporting Station
Overcast Overcast  
Wind Chill: 32°   Ceiling: 2300
Heat Index: 32°   Visibility: 10mi
Dew Point: 27°   Wind: 0mph
Humidity: 80%   Direction: NA
Pressure: 30.29"   Gusts: NA
Location:  40.4466°N, 87.8907°W
Report Text: KTIP 192230Z AUTO 00000KT 10SM OVC023 00/M03 A3029 RMK AO2 T00011029
Loading
Personal Weather Stations






























Interactive Weather Map New forecast layout! Learn more

10-Day Weather Forecast

Advertisements
Track Severe Weather on mobile